Mancio Lima, Brazil
Current Conditions -  °F | °C
As of 6:30 PM on Sunday 21 Dec 2014 (Local Time) from SBCZ Reporting Station
Clear Clear  
Wind Chill: 77°   Ceiling: Unl
Heat Index: 78°   Visibility: 6mi
Dew Point: 77°   Wind: 0mph
Humidity: 100%   Direction: NA
Pressure: 29.77"   Gusts: NA
Location:  7.62°S, 72.9°W
Report Text: SBCZ 212330Z 00000KT CAVOK 25/25 Q1008
Loading
Personal Weather Stations






























Interactive Weather Map New forecast layout! Learn more

10-Day Weather Forecast

Advertisements
Track Severe Weather on mobile